Fort Nelson Airport, British Columbia

Past 24 Hour Conditions

This table is a summary of hourly weather conditions for the past 24 hours. This summary includes the following parameters: temperature, humidity, dew point, wind speed and direction, air pressure, visibility and/or wind chill and humidex.
Date / Time
(PDT)
Conditions Temp (°F) Humidity (%) Dew Point (°F) Wind (mph) Pressure (inches) Vis (mi) Wind Chill
02 October 2014
3:00 Mostly Cloudy 33 89 31 WSW 7 30.3 10 *
2:00 Cloudy 32 95 31 calm 30.3 15 31
1:00 Cloudy 32 96 31 SW 2 30.3 15 29
00:00 Cloudy 31 97 31 S 2 30.3 15 29
01 October 2014
23:00 Mainly Clear 31 95 29 calm 30.3 15 29
22:00 Partly Cloudy 30   95 29 SW 4 30.3 15 26
21:00 Partly Cloudy 33 92 31 WNW 5 30.3 15 *
20:00 Partly Cloudy 33 91 30 W 5 30.2 15 *
19:00 Partly Cloudy 33 88 30 W 5 30.2 15 *
18:00 Mostly Cloudy 36 82 31 WNW 7 30.2 15 *
17:00 Mostly Cloudy 37 81 31 NW 9 30.2 10 *
16:00 Mostly Cloudy 38   80 33 NW 12 gust 18 30.2 15 *
15:00 Mostly Cloudy 37 86 33 NW 12 30.2 15 *
14:00 Mostly Cloudy 35 88 32 NW 10 30.2 10 *
13:00 Light Snow 34 92 32 NW 10 30.2 8 *
12:00 Light Snow 33 94 31 WNW 11 30.1 4 *
11:00 Light Snow 33 96 32 WNW 8 30.1 2 *
10:00 Light Snow 32 96 31 NW 12 30.1 2 *
9:00 Light Snow 33 97 32 NW 11 30.0 2 *
8:00 Light Snow 33 97 32 NW 10 30.0 2 *
7:00 Light Snow 33 98 32 NW 9 30.0 2 *
6:00 Light Snow 33 98 32 NW 9 29.9 5 *
5:00 Light Rain and Snow 33 98 32 NW 9 29.9 5 *
4:00 Light Rain and Snow 33 98 33 NW 12 29.9 5 *
3:00 Light Rain 33 97 32 NW 11 29.9 5 *
N/A
Not available
 ↑ 
Highest temperature
 ↓ 
Lowest temperature
*
Value not significant.

If you require additional historical weather information, please visit Climate Data Online.